createdAt,value
2023-05-07T00:03:21.596Z,3.40
2023-05-07T00:05:54.121Z,4.00
2023-05-07T00:08:25.833Z,2.40
2023-05-07T00:10:57.665Z,4.00
2023-05-07T00:13:32.038Z,3.50
2023-05-07T00:16:04.130Z,3.80
2023-05-07T00:18:35.673Z,4.20
2023-05-07T00:21:07.696Z,3.60
2023-05-07T00:23:39.119Z,3.50
2023-05-07T00:26:10.656Z,3.40
2023-05-07T00:31:12.089Z,3.30
2023-05-07T00:33:43.652Z,3.70
2023-05-07T00:36:15.073Z,4.00
2023-05-07T00:38:46.449Z,3.80
2023-05-07T00:41:18.046Z,3.70
2023-05-07T00:43:49.891Z,3.50
2023-05-07T00:46:21.576Z,3.30
2023-05-07T00:51:22.903Z,3.30
2023-05-07T00:53:54.350Z,4.50
2023-05-07T00:58:55.950Z,3.60
2023-05-07T01:01:27.826Z,3.80
2023-05-07T01:03:59.271Z,4.30
2023-05-07T01:09:01.467Z,3.40
2023-05-07T01:14:02.651Z,3.40
2023-05-07T01:16:34.366Z,4.70
2023-05-07T01:19:05.972Z,4.00
2023-05-07T01:24:08.950Z,3.60
2023-05-07T01:26:41.022Z,3.50
2023-05-07T01:29:13.168Z,4.00
2023-05-07T01:31:44.908Z,4.10
2023-05-07T01:34:18.547Z,5.20
2023-05-07T01:36:50.055Z,3.70
2023-05-07T01:39:21.689Z,4.00
2023-05-07T01:41:53.039Z,4.00
2023-05-07T01:44:24.770Z,3.60
2023-05-07T01:46:56.291Z,3.50
2023-05-07T01:49:27.673Z,3.80
2023-05-07T01:51:59.698Z,4.30
2023-05-07T01:54:31.773Z,4.30
2023-05-07T01:57:03.749Z,3.40
2023-05-07T01:59:35.419Z,3.50
2023-05-07T02:02:07.361Z,3.30
2023-05-07T02:04:39.826Z,3.70
2023-05-07T02:07:12.098Z,4.00
2023-05-07T02:09:43.604Z,3.80
2023-05-07T02:12:15.157Z,4.30
2023-05-07T02:14:46.851Z,4.30
2023-05-07T02:17:18.959Z,4.00
2023-05-07T02:19:50.361Z,4.00
2023-05-07T02:22:22.032Z,3.80
2023-05-07T02:24:53.854Z,4.60
2023-05-07T02:27:25.795Z,3.90
2023-05-07T02:29:57.516Z,4.30
2023-05-07T02:34:58.977Z,4.00
2023-05-07T02:37:30.942Z,4.00
2023-05-07T02:40:02.444Z,3.80
2023-05-07T02:42:34.447Z,4.00
2023-05-07T02:45:06.732Z,4.10
2023-05-07T02:47:38.545Z,4.30
2023-05-07T02:50:11.971Z,3.90
2023-05-07T02:52:43.597Z,5.20
2023-05-07T02:55:15.321Z,4.60
2023-05-07T03:00:19.072Z,4.30
2023-05-07T03:03:13.782Z,3.50
2023-05-07T03:05:45.197Z,4.30
2023-05-07T03:08:16.708Z,4.80
2023-05-07T03:10:48.159Z,5.00
2023-05-07T03:13:19.594Z,4.30
2023-05-07T03:15:52.142Z,4.40
2023-05-07T03:18:24.046Z,4.40
2023-05-07T03:20:55.716Z,4.80
2023-05-07T03:25:57.133Z,4.70
2023-05-07T03:28:28.816Z,4.10
2023-05-07T03:31:04.342Z,4.40
2023-05-07T03:33:36.994Z,4.20
2023-05-07T03:36:08.965Z,4.70
2023-05-07T03:38:40.775Z,4.00
2023-05-07T03:41:12.673Z,4.10
2023-05-07T03:43:44.891Z,5.10
2023-05-07T03:46:16.591Z,4.00
2023-05-07T03:51:18.530Z,4.40
2023-05-07T03:53:50.311Z,4.20
2023-05-07T03:58:51.858Z,3.90
2023-05-07T04:03:53.359Z,4.50
2023-05-07T04:06:25.481Z,4.80
2023-05-07T04:08:57.263Z,3.90
2023-05-07T04:11:29.021Z,3.60
2023-05-07T04:14:00.658Z,4.10
2023-05-07T04:16:32.308Z,4.30
2023-05-07T04:19:03.989Z,3.10
2023-05-07T04:24:07.073Z,4.10
2023-05-07T04:26:38.461Z,3.80
2023-05-07T04:29:10.005Z,4.00
2023-05-07T04:31:41.556Z,4.20
2023-05-07T04:34:13.398Z,3.70
2023-05-07T04:36:45.248Z,3.70
2023-05-07T04:39:17.918Z,4.10
2023-05-07T04:41:50.870Z,4.40
2023-05-07T04:44:22.202Z,3.60
2023-05-07T04:46:53.622Z,3.80
2023-05-07T04:49:25.087Z,4.70
2023-05-07T04:51:56.900Z,3.40
2023-05-07T04:56:59.344Z,4.40
2023-05-07T04:59:31.147Z,4.30
2023-05-07T05:02:02.758Z,4.60
2023-05-07T05:04:34.924Z,4.40
2023-05-07T05:07:06.500Z,4.50
2023-05-07T05:09:37.831Z,3.80
2023-05-07T05:12:10.479Z,6.00
2023-05-07T05:14:42.845Z,5.80
2023-05-07T05:17:14.849Z,5.30
2023-05-07T05:19:46.226Z,5.70
2023-05-07T05:22:17.738Z,5.20
2023-05-07T05:24:49.575Z,4.50
2023-05-07T05:27:21.581Z,3.70
2023-05-07T05:29:53.053Z,3.70
2023-05-07T05:32:25.475Z,4.20
2023-05-07T05:34:59.320Z,4.20
2023-05-07T05:40:01.121Z,4.10
2023-05-07T05:42:34.040Z,4.20
2023-05-07T05:47:35.662Z,4.00
2023-05-07T05:50:08.979Z,3.90
2023-05-07T05:52:42.108Z,3.90
2023-05-07T05:55:14.014Z,3.80
2023-05-07T05:57:46.127Z,3.80
2023-05-07T06:02:52.301Z,3.60
2023-05-07T06:05:26.494Z,4.20
2023-05-07T06:07:59.770Z,3.50
2023-05-07T06:10:32.829Z,3.90
2023-05-07T06:13:05.166Z,3.80
2023-05-07T06:15:37.072Z,3.40
2023-05-07T06:18:12.420Z,3.40
2023-05-07T06:23:18.153Z,3.60
2023-05-07T06:25:52.391Z,3.90
2023-05-07T06:28:25.812Z,3.50
2023-05-07T06:30:57.203Z,3.70
2023-05-07T06:33:28.577Z,3.80
2023-05-07T06:36:00.160Z,3.20
2023-05-07T06:38:32.300Z,3.50
2023-05-07T06:41:04.177Z,3.20
2023-05-07T06:43:35.675Z,4.00
2023-05-07T06:46:33.783Z,3.20
2023-05-07T06:49:05.320Z,3.30
2023-05-07T06:54:08.097Z,3.00
2023-05-07T06:56:41.081Z,3.70
2023-05-07T07:01:44.383Z,3.00
2023-05-07T07:04:16.339Z,2.90
2023-05-07T07:06:48.467Z,3.80
2023-05-07T07:09:21.116Z,2.50
2023-05-07T07:11:54.303Z,2.90
2023-05-07T07:14:26.496Z,3.60
2023-05-07T07:16:58.549Z,3.40
2023-05-07T07:19:30.079Z,3.40
2023-05-07T07:22:02.197Z,4.30
2023-05-07T07:24:33.888Z,3.50
2023-05-07T07:27:07.812Z,2.40
2023-05-07T07:32:09.501Z,2.80
2023-05-07T07:37:12.087Z,2.90
2023-05-07T07:42:14.202Z,3.30
2023-05-07T07:47:16.314Z,3.20
2023-05-07T07:49:47.984Z,3.10
2023-05-07T07:52:19.654Z,3.20
2023-05-07T07:54:51.379Z,3.10
2023-05-07T07:59:53.290Z,3.00
2023-05-07T08:02:25.701Z,3.10
2023-05-07T08:04:58.109Z,2.80
2023-05-07T08:09:59.967Z,3.30
2023-05-07T08:12:31.680Z,3.50
2023-05-07T08:15:04.108Z,3.40
2023-05-07T08:17:35.635Z,2.50
2023-05-07T08:20:10.440Z,3.00
2023-05-07T08:22:42.243Z,3.20
2023-05-07T08:25:14.569Z,3.00
2023-05-07T08:30:18.750Z,3.10
2023-05-07T08:32:50.539Z,2.70
2023-05-07T08:37:51.932Z,2.50
2023-05-07T08:40:23.956Z,2.50
2023-05-07T08:42:56.253Z,2.70
2023-05-07T08:45:29.162Z,2.80
2023-05-07T08:50:35.385Z,2.90
2023-05-07T08:53:08.366Z,3.30
2023-05-07T08:55:40.389Z,2.70
2023-05-07T08:58:12.373Z,3.00
2023-05-07T09:00:44.474Z,3.20
2023-05-07T09:03:17.312Z,5.10
2023-05-07T09:05:51.364Z,3.70
2023-05-07T09:08:25.790Z,3.00
2023-05-07T09:10:58.198Z,3.30
2023-05-07T09:13:29.925Z,3.30
2023-05-07T09:16:02.443Z,3.90
2023-05-07T09:18:34.306Z,3.40
2023-05-07T09:23:36.205Z,3.40
2023-05-07T09:26:12.816Z,2.70
2023-05-07T09:28:45.258Z,3.60
2023-05-07T09:31:20.349Z,3.20
2023-05-07T09:33:52.948Z,2.40
2023-05-07T09:36:25.574Z,2.80
2023-05-07T09:38:57.852Z,2.80
2023-05-07T09:41:29.414Z,2.70
2023-05-07T09:44:15.267Z,2.60
2023-05-07T09:46:51.553Z,3.10
2023-05-07T09:49:27.496Z,2.50
2023-05-07T09:52:04.899Z,2.30
2023-05-07T09:54:39.141Z,2.10
2023-05-07T09:57:11.960Z,2.60
2023-05-07T09:59:44.683Z,2.10
2023-05-07T10:02:17.882Z,2.60
2023-05-07T10:04:55.506Z,4.30
2023-05-07T10:07:30.711Z,2.40
2023-05-07T10:10:05.252Z,2.80
2023-05-07T10:12:41.636Z,2.40
2023-05-07T10:15:18.196Z,2.60
2023-05-07T10:17:52.552Z,2.80
2023-05-07T10:20:24.673Z,2.60
2023-05-07T10:22:56.430Z,2.00
2023-05-07T10:25:33.037Z,2.50
2023-05-07T10:28:09.990Z,2.20
2023-05-07T10:30:47.605Z,2.40
2023-05-07T10:33:19.828Z,2.40
2023-05-07T10:35:52.320Z,2.60
2023-05-07T10:40:54.426Z,2.30
2023-05-07T10:43:26.191Z,2.20
2023-05-07T10:46:21.256Z,2.40
2023-05-07T10:49:17.413Z,2.10
2023-05-07T10:52:16.073Z,2.30
2023-05-07T10:55:26.566Z,2.50
2023-05-07T10:58:32.607Z,1.90
2023-05-07T11:01:16.155Z,2.10
2023-05-07T11:07:41.804Z,2.40
2023-05-07T11:10:18.099Z,1.60
2023-05-07T11:13:01.479Z,2.20
2023-05-07T11:15:48.014Z,1.90
2023-05-07T11:18:33.363Z,2.00
2023-05-07T11:21:06.896Z,1.90
2023-05-07T11:24:02.746Z,2.50
2023-05-07T11:26:50.467Z,1.90
2023-05-07T11:29:23.509Z,1.80
2023-05-07T11:32:01.454Z,1.80
2023-05-07T11:34:36.413Z,1.90
2023-05-07T11:37:07.790Z,1.90
2023-05-07T11:39:47.601Z,1.90
2023-05-07T11:42:32.221Z,1.50
2023-05-07T11:45:06.911Z,2.00
2023-05-07T11:47:38.623Z,1.90
2023-05-07T11:50:13.159Z,1.90
2023-05-07T11:52:52.638Z,2.20
2023-05-07T11:55:30.129Z,1.90
2023-05-07T11:58:03.432Z,2.00
2023-05-07T12:00:41.841Z,2.30
2023-05-07T12:03:15.239Z,1.80
2023-05-07T12:05:51.288Z,1.90
2023-05-07T12:08:23.165Z,2.20
2023-05-07T12:10:54.665Z,2.00
2023-05-07T12:13:26.796Z,2.10
2023-05-07T12:15:59.217Z,2.40
2023-05-07T12:18:30.558Z,1.90
2023-05-07T12:21:02.007Z,2.10
2023-05-07T12:26:05.725Z,2.10
2023-05-07T12:28:41.760Z,2.20
2023-05-07T12:31:13.533Z,1.80
2023-05-07T12:33:45.126Z,1.80
2023-05-07T12:36:17.030Z,1.50
2023-05-07T12:38:48.540Z,2.00
2023-05-07T12:41:20.293Z,2.00
2023-05-07T12:43:52.074Z,2.00
2023-05-07T12:46:24.941Z,2.00
2023-05-07T12:48:56.665Z,1.60
2023-05-07T12:51:28.325Z,1.80
2023-05-07T12:54:01.406Z,1.90
2023-05-07T12:56:34.534Z,1.80
2023-05-07T12:59:06.350Z,1.80
2023-05-07T13:01:37.954Z,2.00
2023-05-07T13:06:39.278Z,1.60
2023-05-07T13:09:10.754Z,1.70
2023-05-07T13:11:42.134Z,2.00
2023-05-07T13:14:14.936Z,1.80
2023-05-07T13:16:46.539Z,1.70
2023-05-07T13:21:48.076Z,2.40
2023-05-07T13:24:19.632Z,1.40
2023-05-07T13:26:51.620Z,2.10
2023-05-07T13:29:26.629Z,2.00
2023-05-07T13:31:58.423Z,1.80
2023-05-07T13:34:30.412Z,1.70
2023-05-07T13:37:02.197Z,1.70
2023-05-07T13:39:33.869Z,1.80
2023-05-07T13:42:05.503Z,1.70
2023-05-07T13:47:07.146Z,2.30
2023-05-07T13:49:39.140Z,1.60
2023-05-07T13:52:10.741Z,1.60
2023-05-07T13:57:12.532Z,1.30
2023-05-07T14:02:13.806Z,2.00
2023-05-07T14:04:46.563Z,1.80
2023-05-07T14:07:18.103Z,1.50
2023-05-07T14:09:51.899Z,2.00
2023-05-07T14:12:23.495Z,1.90
2023-05-07T14:14:54.954Z,2.30
2023-05-07T14:17:28.254Z,1.40
2023-05-07T14:19:59.922Z,1.50
2023-05-07T14:22:31.392Z,1.70
2023-05-07T14:25:06.803Z,1.90
2023-05-07T14:27:48.376Z,1.80
2023-05-07T14:30:25.668Z,1.60
2023-05-07T14:32:57.160Z,1.50
2023-05-07T14:35:28.769Z,1.70
2023-05-07T14:38:00.134Z,1.60
2023-05-07T14:40:32.775Z,1.80
2023-05-07T14:43:05.810Z,1.80
2023-05-07T14:45:38.185Z,1.60
2023-05-07T14:48:12.750Z,1.80
2023-05-07T14:50:44.565Z,1.80
2023-05-07T14:55:46.015Z,2.00
2023-05-07T14:58:18.092Z,1.60
2023-05-07T15:00:50.136Z,1.80
2023-05-07T15:03:22.067Z,1.80
2023-05-07T15:05:54.384Z,2.10
2023-05-07T15:08:26.421Z,1.80
2023-05-07T15:10:59.940Z,1.60
2023-05-07T15:13:31.637Z,1.90
2023-05-07T15:16:03.787Z,1.80
2023-05-07T15:18:35.900Z,1.80
2023-05-07T15:21:07.782Z,1.70
2023-05-07T15:23:40.392Z,1.70
2023-05-07T15:28:43.579Z,1.70
2023-05-07T15:31:15.237Z,2.00
2023-05-07T15:36:17.835Z,2.20
2023-05-07T15:38:49.676Z,2.20
2023-05-07T15:41:21.955Z,2.20
2023-05-07T15:43:54.702Z,2.00
2023-05-07T15:46:29.357Z,1.90
2023-05-07T15:49:02.743Z,2.90
2023-05-07T15:51:38.598Z,2.90
2023-05-07T15:54:10.882Z,2.60
2023-05-07T15:56:43.565Z,2.80
2023-05-07T15:59:17.757Z,2.10
2023-05-07T16:01:53.200Z,2.20
2023-05-07T16:04:25.491Z,2.40
2023-05-07T16:06:59.115Z,1.80
2023-05-07T16:09:32.215Z,2.10
2023-05-07T16:12:06.852Z,2.00
2023-05-07T16:14:42.084Z,1.90
2023-05-07T16:17:17.217Z,2.30
2023-05-07T16:19:49.930Z,1.90
2023-05-07T16:22:24.972Z,1.90
2023-05-07T16:24:57.135Z,1.80
2023-05-07T16:27:29.133Z,1.80
2023-05-07T16:32:31.703Z,2.60
2023-05-07T16:35:04.212Z,2.10
2023-05-07T16:37:36.201Z,2.30
2023-05-07T16:40:09.397Z,2.30
2023-05-07T16:42:41.162Z,2.10
2023-05-07T16:47:44.653Z,2.10
2023-05-07T16:52:47.396Z,2.20
2023-05-07T16:55:22.342Z,3.00
2023-05-07T16:57:55.109Z,3.20
2023-05-07T17:03:03.957Z,2.80
2023-05-07T17:05:35.614Z,2.80
2023-05-07T17:08:07.612Z,2.80
2023-05-07T17:10:39.098Z,2.30
2023-05-07T17:13:10.985Z,2.70
2023-05-07T17:15:43.819Z,3.00
2023-05-07T17:18:15.555Z,2.90
2023-05-07T17:20:47.664Z,3.30
2023-05-07T17:23:19.297Z,3.50
2023-05-07T17:28:20.788Z,3.90
2023-05-07T17:33:22.417Z,4.20
2023-05-07T17:35:56.196Z,4.30
2023-05-07T17:38:28.174Z,3.50
2023-05-07T17:41:00.257Z,3.30
2023-05-07T17:43:31.597Z,3.40
2023-05-07T17:46:03.499Z,2.70
2023-05-07T17:48:35.013Z,2.50
2023-05-07T17:51:06.932Z,3.70
2023-05-07T17:53:38.757Z,2.50
2023-05-07T17:58:57.553Z,2.80
2023-05-07T18:01:33.951Z,3.10
2023-05-07T18:04:06.081Z,3.20
2023-05-07T18:06:39.136Z,3.30
2023-05-07T18:09:11.113Z,2.90
2023-05-07T18:11:43.794Z,3.10
2023-05-07T18:14:15.790Z,2.90
2023-05-07T18:16:47.895Z,2.60
2023-05-07T18:21:49.768Z,3.00
2023-05-07T18:24:21.291Z,3.20
2023-05-07T18:26:52.738Z,3.90
2023-05-07T18:29:24.290Z,3.20
2023-05-07T18:31:58.463Z,2.60
2023-05-07T18:34:31.253Z,3.60
2023-05-07T18:37:02.934Z,3.40
2023-05-07T18:39:34.641Z,3.40
2023-05-07T18:44:38.728Z,3.40
2023-05-07T18:47:10.381Z,3.70
2023-05-07T18:49:42.279Z,3.30
2023-05-07T18:54:43.815Z,3.80
2023-05-07T18:57:15.540Z,3.40
2023-05-07T18:59:47.044Z,3.50
2023-05-07T19:02:19.431Z,3.40
2023-05-07T19:04:51.021Z,3.80
2023-05-07T19:10:04.075Z,3.70
2023-05-07T19:12:36.993Z,3.60
2023-05-07T19:15:10.193Z,3.50
2023-05-07T19:17:41.938Z,3.20
2023-05-07T19:22:44.560Z,4.60
2023-05-07T19:25:16.512Z,3.60
2023-05-07T19:27:48.476Z,4.40
2023-05-07T19:30:20.083Z,3.30
2023-05-07T19:32:51.869Z,3.30
2023-05-07T19:37:53.252Z,3.60
2023-05-07T19:40:24.984Z,2.80
2023-05-07T19:42:56.351Z,3.80
2023-05-07T19:45:27.883Z,3.50
2023-05-07T19:47:59.314Z,3.90
2023-05-07T19:50:31.094Z,3.10
2023-05-07T19:53:02.539Z,3.90
2023-05-07T19:55:34.153Z,3.40
2023-05-07T19:58:05.544Z,3.20
2023-05-07T20:00:37.912Z,3.80
2023-05-07T20:03:09.259Z,3.20
2023-05-07T20:05:40.671Z,4.50
2023-05-07T20:08:12.450Z,4.10
2023-05-07T20:10:44.124Z,3.90
2023-05-07T20:13:15.932Z,3.30
2023-05-07T20:15:50.359Z,3.10
2023-05-07T20:18:21.848Z,3.40
2023-05-07T20:20:53.619Z,3.20
2023-05-07T20:25:55.079Z,4.00
2023-05-07T20:28:26.565Z,3.70
2023-05-07T20:30:58.041Z,3.90
2023-05-07T20:33:29.593Z,3.30
2023-05-07T20:36:02.161Z,2.80
2023-05-07T20:38:34.061Z,3.60
2023-05-07T20:41:10.029Z,3.80
2023-05-07T20:43:42.046Z,3.00
2023-05-07T20:46:13.487Z,3.70
2023-05-07T20:48:45.139Z,3.50
2023-05-07T20:51:16.705Z,3.30
2023-05-07T20:56:20.538Z,3.30
2023-05-07T20:58:53.565Z,3.50
2023-05-07T21:01:25.063Z,2.80
2023-05-07T21:06:26.731Z,3.90
2023-05-07T21:08:58.185Z,3.80
2023-05-07T21:11:29.913Z,3.60
2023-05-07T21:14:01.511Z,3.90
2023-05-07T21:16:33.094Z,3.70
2023-05-07T21:19:04.637Z,3.70
2023-05-07T21:21:36.089Z,3.60
2023-05-07T21:24:09.311Z,3.00
2023-05-07T21:26:40.968Z,2.70
2023-05-07T21:29:12.482Z,3.20
2023-05-07T21:31:43.997Z,3.50
2023-05-07T21:34:15.467Z,3.40
2023-05-07T21:36:46.863Z,2.80
2023-05-07T21:39:18.626Z,3.00
2023-05-07T21:44:19.986Z,2.80
2023-05-07T21:46:51.515Z,3.90
2023-05-07T21:49:23.155Z,3.30
2023-05-07T21:51:54.763Z,2.80
2023-05-07T21:54:26.252Z,3.10
2023-05-07T21:59:27.826Z,3.10
2023-05-07T22:01:59.444Z,3.20
2023-05-07T22:07:00.893Z,3.60
2023-05-07T22:12:02.307Z,3.20
2023-05-07T22:14:33.940Z,2.80
2023-05-07T22:17:05.488Z,3.10
2023-05-07T22:19:36.988Z,2.80
2023-05-07T22:22:08.357Z,3.20
2023-05-07T22:24:39.828Z,3.00
2023-05-07T22:27:11.386Z,2.90
2023-05-07T22:29:42.930Z,3.40
2023-05-07T22:32:14.543Z,3.10
2023-05-07T22:37:15.891Z,2.50
2023-05-07T22:39:47.369Z,3.40
2023-05-07T22:42:18.795Z,3.00
2023-05-07T22:44:51.691Z,3.00
2023-05-07T22:47:23.132Z,3.10
2023-05-07T22:49:54.743Z,2.20
2023-05-07T22:52:26.123Z,3.00
2023-05-07T22:54:57.544Z,2.90
2023-05-07T22:59:59.130Z,2.70
2023-05-07T23:02:30.680Z,3.20
2023-05-07T23:05:03.433Z,3.70
2023-05-07T23:07:35.017Z,2.50
2023-05-07T23:10:07.450Z,2.30
2023-05-07T23:12:38.944Z,2.80
2023-05-07T23:15:12.014Z,3.10
2023-05-07T23:17:43.597Z,3.00
2023-05-07T23:20:16.228Z,2.90
2023-05-07T23:22:47.660Z,2.70
2023-05-07T23:25:19.465Z,3.10
2023-05-07T23:27:51.054Z,2.70
2023-05-07T23:32:53.164Z,3.40
2023-05-07T23:35:25.270Z,2.50
2023-05-07T23:37:56.762Z,2.70
2023-05-07T23:40:28.399Z,2.90
2023-05-07T23:45:29.723Z,3.00
2023-05-07T23:48:01.230Z,2.60
2023-05-07T23:50:33.132Z,2.60
2023-05-07T23:53:04.812Z,3.30
2023-05-07T23:58:06.423Z,2.60
